createdAt,value
2022-12-18T00:01:50.820Z,13.50
2022-12-18T00:04:25.953Z,13.60
2022-12-18T00:07:01.366Z,15.03
2022-12-18T00:09:31.152Z,11.67
2022-12-18T00:14:44.023Z,11.83
2022-12-18T00:17:11.831Z,12.83
2022-12-18T00:19:39.667Z,15.90
2022-12-18T00:22:07.646Z,12.70
2022-12-18T00:24:36.056Z,15.47
2022-12-18T00:27:04.014Z,13.83
2022-12-18T00:29:31.855Z,11.97
2022-12-18T00:31:59.718Z,12.20
2022-12-18T00:34:27.571Z,11.43
2022-12-18T00:36:55.436Z,16.50
2022-12-18T00:39:23.535Z,13.90
2022-12-18T00:42:09.789Z,14.93
2022-12-18T00:44:37.677Z,10.77
2022-12-18T00:47:05.740Z,17.73
2022-12-18T00:49:33.688Z,17.23
2022-12-18T00:52:01.589Z,13.07
2022-12-18T00:54:29.607Z,14.57
2022-12-18T00:56:57.384Z,15.43
2022-12-18T00:59:25.114Z,14.50
2022-12-18T01:01:56.040Z,16.23
2022-12-18T01:04:23.916Z,13.80
2022-12-18T01:06:51.669Z,13.60
2022-12-18T01:09:21.846Z,15.93
2022-12-18T01:11:49.731Z,12.23
2022-12-18T01:14:17.535Z,16.63
2022-12-18T01:16:45.762Z,15.37
2022-12-18T01:19:13.688Z,14.73
2022-12-18T01:21:41.704Z,16.47
2022-12-18T01:24:11.351Z,15.80
2022-12-18T01:26:39.066Z,13.33
2022-12-18T01:29:06.964Z,15.93
2022-12-18T01:31:35.741Z,14.47
2022-12-18T01:34:05.445Z,17.13
2022-12-18T01:36:37.448Z,15.67
2022-12-18T01:41:53.912Z,12.93
2022-12-18T01:44:58.650Z,14.80
2022-12-18T01:47:47.002Z,15.80
2022-12-18T01:50:35.004Z,14.43
2022-12-18T01:53:13.030Z,16.87
2022-12-18T01:55:46.986Z,14.40
2022-12-18T01:58:15.151Z,13.17
2022-12-18T02:00:43.185Z,16.20
2022-12-18T02:03:11.307Z,17.47
2022-12-18T02:05:57.366Z,15.10
2022-12-18T02:08:53.544Z,17.00
2022-12-18T02:11:42.606Z,11.53
2022-12-18T02:14:19.265Z,12.53
2022-12-18T02:16:54.376Z,15.33
2022-12-18T02:19:41.363Z,18.10
2022-12-18T02:22:22.588Z,14.53
2022-12-18T02:24:56.424Z,16.92
2022-12-18T02:27:24.735Z,12.93
2022-12-18T02:29:58.576Z,17.13
2022-12-18T02:32:35.009Z,12.77
2022-12-18T02:35:06.736Z,13.83
2022-12-18T02:37:35.617Z,15.70
2022-12-18T02:40:07.278Z,17.75
2022-12-18T02:42:38.370Z,15.63
2022-12-18T02:45:09.330Z,13.83
2022-12-18T02:47:41.177Z,14.80
2022-12-18T02:54:40.653Z,14.53
2022-12-18T02:57:26.349Z,13.07
2022-12-18T02:59:58.601Z,13.17
2022-12-18T03:02:40.432Z,9.70
2022-12-18T03:05:29.184Z,14.20
2022-12-18T03:08:18.357Z,11.87
2022-12-18T03:11:01.563Z,12.30
2022-12-18T03:13:35.096Z,15.97
2022-12-18T03:16:06.543Z,15.30
2022-12-18T03:18:44.509Z,15.43
2022-12-18T03:21:12.973Z,12.60
2022-12-18T03:23:49.242Z,16.33
2022-12-18T03:26:22.078Z,16.43
2022-12-18T03:29:01.367Z,13.23
2022-12-18T03:31:31.308Z,15.17
2022-12-18T03:34:04.793Z,15.33
2022-12-18T03:36:40.780Z,14.18
2022-12-18T03:39:08.803Z,14.90
2022-12-18T03:42:09.198Z,13.00
2022-12-18T03:44:53.452Z,15.40
2022-12-18T03:47:48.993Z,13.90
2022-12-18T03:50:18.444Z,14.13
2022-12-18T03:53:02.368Z,15.32
2022-12-18T03:55:33.875Z,16.37
2022-12-18T03:58:06.108Z,15.60
2022-12-18T04:00:45.774Z,17.27
2022-12-18T04:03:14.807Z,19.13
2022-12-18T04:05:51.612Z,15.20
2022-12-18T04:08:22.533Z,13.57
2022-12-18T04:11:00.674Z,17.47
2022-12-18T04:13:36.183Z,12.17
2022-12-18T04:16:07.588Z,10.73
2022-12-18T04:18:36.503Z,17.07
2022-12-18T04:21:05.279Z,16.97
2022-12-18T04:23:34.254Z,15.63
2022-12-18T04:26:02.925Z,15.00
2022-12-18T04:28:53.843Z,16.93
2022-12-18T04:31:22.482Z,18.47
2022-12-18T04:33:50.797Z,15.50
2022-12-18T04:36:18.931Z,14.63
2022-12-18T04:38:47.645Z,17.83
2022-12-18T04:41:17.961Z,14.77
2022-12-18T04:43:48.646Z,14.77
2022-12-18T04:46:16.403Z,17.10
2022-12-18T04:48:46.213Z,14.83
2022-12-18T04:51:14.225Z,14.80
2022-12-18T04:53:42.442Z,17.97
2022-12-18T04:56:13.993Z,16.60
2022-12-18T04:58:44.103Z,16.75
2022-12-18T05:01:14.105Z,18.60
2022-12-18T05:03:42.387Z,18.23
2022-12-18T05:06:10.509Z,18.83
2022-12-18T05:08:38.335Z,19.57
2022-12-18T05:11:10.856Z,23.90
2022-12-18T05:13:39.658Z,15.97
2022-12-18T05:16:08.343Z,14.53
2022-12-18T05:18:37.125Z,16.33
2022-12-18T05:21:05.616Z,18.57
2022-12-18T05:23:36.228Z,18.17
2022-12-18T05:26:06.258Z,18.53
2022-12-18T05:28:35.531Z,17.23
2022-12-18T05:31:14.864Z,15.97
2022-12-18T05:33:43.316Z,19.37
2022-12-18T05:36:12.475Z,14.57
2022-12-18T05:38:40.855Z,15.57
2022-12-18T05:41:09.726Z,23.60
2022-12-18T05:43:38.911Z,20.40
2022-12-18T05:46:14.630Z,17.10
2022-12-18T05:48:43.313Z,17.37
2022-12-18T05:51:15.568Z,17.50
2022-12-18T05:53:43.926Z,17.80
2022-12-18T05:56:22.747Z,17.90
2022-12-18T05:58:54.227Z,13.77
2022-12-18T06:01:24.916Z,18.38
2022-12-18T06:03:52.727Z,20.13
2022-12-18T06:06:25.467Z,16.73
2022-12-18T06:08:53.501Z,17.00
2022-12-18T06:11:23.419Z,18.93
2022-12-18T06:13:58.760Z,18.53
2022-12-18T06:16:28.174Z,17.30
2022-12-18T06:18:59.077Z,18.80
2022-12-18T06:21:28.364Z,18.58
2022-12-18T06:23:56.348Z,18.40
2022-12-18T06:26:28.052Z,16.93
2022-12-18T06:28:56.711Z,16.97
2022-12-18T06:31:24.647Z,13.33
2022-12-18T06:33:52.800Z,19.97
2022-12-18T06:36:21.258Z,17.17
2022-12-18T06:38:49.051Z,18.53
2022-12-18T06:41:19.143Z,14.40
2022-12-18T06:43:47.076Z,17.60
2022-12-18T06:46:17.886Z,17.10
2022-12-18T06:48:50.030Z,15.63
2022-12-18T06:51:24.813Z,15.93
2022-12-18T06:53:52.670Z,21.97
2022-12-18T06:56:20.450Z,14.27
2022-12-18T06:58:48.284Z,19.07
2022-12-18T07:01:16.353Z,16.73
2022-12-18T07:03:45.488Z,16.93
2022-12-18T07:06:18.745Z,13.13
2022-12-18T07:08:47.244Z,15.73
2022-12-18T07:11:15.116Z,23.27
2022-12-18T07:13:43.149Z,19.83
2022-12-18T07:16:20.837Z,18.17
2022-12-18T07:18:50.441Z,19.10
2022-12-18T07:21:20.482Z,17.37
2022-12-18T07:23:49.373Z,21.63
2022-12-18T07:26:18.970Z,18.47
2022-12-18T07:28:47.106Z,17.93
2022-12-18T07:31:17.649Z,19.07
2022-12-18T07:33:45.673Z,15.83
2022-12-18T07:36:14.000Z,19.20
2022-12-18T07:38:42.142Z,19.50
2022-12-18T07:41:12.555Z,19.10
2022-12-18T07:43:41.933Z,18.87
2022-12-18T07:46:10.948Z,19.30
2022-12-18T07:48:41.518Z,19.67
2022-12-18T07:51:09.747Z,18.50
2022-12-18T07:53:38.645Z,20.50
2022-12-18T07:58:57.522Z,17.27
2022-12-18T08:01:25.561Z,22.90
2022-12-18T08:03:53.623Z,19.33
2022-12-18T08:06:23.243Z,18.10
2022-12-18T08:08:56.368Z,26.42
2022-12-18T08:11:25.647Z,14.63
2022-12-18T08:13:53.498Z,22.63
2022-12-18T08:16:21.924Z,24.17
2022-12-18T08:18:49.875Z,20.07
2022-12-18T08:21:27.469Z,22.07
2022-12-18T08:23:57.249Z,25.20
2022-12-18T08:26:26.026Z,26.30
2022-12-18T08:28:54.953Z,25.90
2022-12-18T08:31:23.985Z,25.03
2022-12-18T08:33:53.490Z,17.93
2022-12-18T08:36:23.057Z,25.97
2022-12-18T08:38:51.526Z,20.63
2022-12-18T08:41:20.256Z,22.70
2022-12-18T08:44:06.784Z,22.10
2022-12-18T08:46:38.009Z,20.27
2022-12-18T08:49:06.727Z,17.70
2022-12-18T08:51:35.187Z,20.58
2022-12-18T08:54:03.011Z,21.05
2022-12-18T08:56:32.962Z,21.30
2022-12-18T08:59:00.774Z,21.80
2022-12-18T09:01:29.533Z,21.25
2022-12-18T09:03:57.511Z,26.48
2022-12-18T09:06:25.541Z,26.90
2022-12-18T09:08:53.446Z,23.33
2022-12-18T09:11:24.129Z,27.15
2022-12-18T09:13:52.156Z,26.05
2022-12-18T09:16:28.803Z,24.05
2022-12-18T09:19:03.216Z,23.00
2022-12-18T09:21:36.768Z,27.17
2022-12-18T09:24:08.642Z,26.20
2022-12-18T09:29:05.278Z,23.27
2022-12-18T09:31:33.394Z,20.83
2022-12-18T09:34:01.165Z,23.42
2022-12-18T09:36:28.981Z,29.98
2022-12-18T09:38:56.621Z,23.55
2022-12-18T09:41:47.290Z,25.85
2022-12-18T09:44:45.497Z,20.10
2022-12-18T09:47:27.289Z,22.20
2022-12-18T09:50:01.903Z,24.25
2022-12-18T09:52:39.156Z,24.17
2022-12-18T09:55:28.934Z,21.83
2022-12-18T09:58:07.750Z,19.85
2022-12-18T10:00:36.801Z,24.02
2022-12-18T10:03:15.757Z,23.13
2022-12-18T10:06:01.615Z,24.90
2022-12-18T10:08:54.563Z,22.92
2022-12-18T10:11:28.754Z,18.48
2022-12-18T10:14:11.286Z,22.17
2022-12-18T10:16:48.940Z,19.55
2022-12-18T10:19:34.781Z,23.85
2022-12-18T10:22:28.737Z,25.00
2022-12-18T10:25:18.270Z,30.10
2022-12-18T10:27:46.006Z,17.45
2022-12-18T10:30:19.419Z,20.65
2022-12-18T10:32:47.415Z,21.58
2022-12-18T10:35:26.711Z,21.30
2022-12-18T10:38:17.366Z,21.02
2022-12-18T10:41:02.628Z,21.23
2022-12-18T10:43:40.955Z,18.40
2022-12-18T10:46:11.848Z,21.23
2022-12-18T10:48:48.691Z,17.63
2022-12-18T10:51:37.134Z,20.02
2022-12-18T10:54:06.509Z,23.90
2022-12-18T10:56:36.553Z,17.83
2022-12-18T10:59:06.985Z,32.97
2022-12-18T11:01:59.420Z,16.85
2022-12-18T11:04:29.584Z,16.90
2022-12-18T11:07:01.748Z,19.17
2022-12-18T11:09:32.982Z,14.90
2022-12-18T11:12:03.462Z,18.08
2022-12-18T11:14:47.064Z,19.55
2022-12-18T11:17:42.857Z,19.85
2022-12-18T11:20:35.282Z,17.13
2022-12-18T11:23:06.691Z,16.88
2022-12-18T11:25:36.013Z,19.23
2022-12-18T11:28:26.970Z,16.27
2022-12-18T11:31:19.429Z,15.45
2022-12-18T11:36:50.102Z,17.77
2022-12-18T11:39:33.000Z,17.63
2022-12-18T11:42:44.112Z,17.77
2022-12-18T11:45:14.497Z,15.15
2022-12-18T11:47:57.087Z,14.52
2022-12-18T11:50:30.101Z,17.38
2022-12-18T11:53:02.803Z,19.42
2022-12-18T11:55:52.607Z,16.48
2022-12-18T11:58:31.605Z,17.83
2022-12-18T12:01:11.941Z,15.98
2022-12-18T12:03:58.277Z,13.73
2022-12-18T12:06:54.200Z,15.32
2022-12-18T12:09:45.592Z,13.00
2022-12-18T12:12:48.781Z,12.30
2022-12-18T12:15:54.680Z,11.07
2022-12-18T12:18:25.460Z,11.48
2022-12-18T12:21:05.331Z,8.93
2022-12-18T12:24:03.825Z,7.93
2022-12-18T12:26:37.492Z,8.75
2022-12-18T12:29:36.193Z,12.70
2022-12-18T12:32:17.866Z,10.57
2022-12-18T12:35:04.754Z,15.88
2022-12-18T12:37:49.444Z,11.35
2022-12-18T12:43:21.883Z,12.57
2022-12-18T12:45:54.891Z,10.55
2022-12-18T12:48:42.887Z,10.93
2022-12-18T12:51:25.652Z,12.63
2022-12-18T12:53:56.215Z,13.95
2022-12-18T12:56:30.467Z,13.57
2022-12-18T12:59:22.677Z,11.20
2022-12-18T13:02:20.000Z,13.13
2022-12-18T13:04:52.800Z,13.93
2022-12-18T13:07:39.586Z,14.27
2022-12-18T13:10:20.880Z,15.57
2022-12-18T13:12:58.873Z,15.27
2022-12-18T13:15:40.892Z,14.60
2022-12-18T13:18:11.861Z,15.00
2022-12-18T13:23:41.389Z,15.90
2022-12-18T13:26:12.550Z,19.02
2022-12-18T13:28:49.297Z,16.77
2022-12-18T13:31:39.839Z,16.98
2022-12-18T13:37:35.042Z,15.75
2022-12-18T13:40:03.267Z,16.98
2022-12-18T13:42:49.430Z,21.85
2022-12-18T13:46:02.315Z,17.33
2022-12-18T13:48:33.132Z,18.80
2022-12-18T13:51:04.653Z,20.98
2022-12-18T13:53:38.886Z,18.45
2022-12-18T13:56:07.551Z,18.15
2022-12-18T13:58:35.468Z,21.40
2022-12-18T14:01:05.892Z,18.92
2022-12-18T14:03:34.064Z,17.60
2022-12-18T14:06:05.917Z,16.48
2022-12-18T14:11:06.493Z,15.23
2022-12-18T14:13:40.671Z,15.73
2022-12-18T14:16:09.202Z,16.50
2022-12-18T14:19:01.522Z,14.07
2022-12-18T14:21:39.672Z,14.93
2022-12-18T14:24:14.540Z,15.20
2022-12-18T14:26:43.061Z,17.02
2022-12-18T14:29:22.559Z,12.18
2022-12-18T14:32:17.808Z,13.77
2022-12-18T14:34:51.370Z,14.15
2022-12-18T14:37:23.355Z,12.57
2022-12-18T14:42:41.916Z,12.38
2022-12-18T14:45:42.181Z,14.15
2022-12-18T14:48:15.848Z,13.52
2022-12-18T14:50:54.942Z,13.57
2022-12-18T14:53:33.499Z,12.52
2022-12-18T14:56:02.438Z,13.15
2022-12-18T14:58:30.631Z,11.90
2022-12-18T15:00:58.502Z,11.77
2022-12-18T15:03:27.155Z,11.60
2022-12-18T15:05:55.036Z,10.75
2022-12-18T15:08:36.444Z,12.50
2022-12-18T15:11:08.955Z,10.68
2022-12-18T15:13:40.205Z,13.13
2022-12-18T15:16:14.194Z,10.45
2022-12-18T15:18:44.215Z,10.43
2022-12-18T15:21:13.153Z,9.18
2022-12-18T15:23:53.075Z,9.10
2022-12-18T15:26:23.237Z,14.10
2022-12-18T15:28:53.110Z,15.63
2022-12-18T15:31:38.637Z,12.47
2022-12-18T15:34:15.688Z,10.40
2022-12-18T15:36:43.666Z,9.70
2022-12-18T15:39:14.922Z,9.67
2022-12-18T15:42:02.727Z,10.27
2022-12-18T15:44:30.682Z,14.90
2022-12-18T15:46:58.802Z,11.73
2022-12-18T15:49:26.620Z,10.57
2022-12-18T15:51:56.449Z,9.30
2022-12-18T15:54:44.216Z,15.13
2022-12-18T15:57:25.293Z,12.13
2022-12-18T15:59:55.341Z,9.93
2022-12-18T16:02:24.104Z,10.80
2022-12-18T16:04:56.238Z,14.70
2022-12-18T16:07:25.718Z,12.90
2022-12-18T16:09:55.502Z,13.05
2022-12-18T16:12:26.745Z,10.83
2022-12-18T16:14:54.702Z,10.03
2022-12-18T16:17:22.726Z,10.33
2022-12-18T16:19:50.575Z,12.10
2022-12-18T16:22:24.792Z,11.97
2022-12-18T16:24:53.783Z,8.77
2022-12-18T16:27:22.634Z,10.80
2022-12-18T16:29:50.736Z,11.30
2022-12-18T16:32:21.413Z,13.10
2022-12-18T16:34:49.983Z,9.97
2022-12-18T16:37:17.994Z,9.33
2022-12-18T16:39:45.890Z,9.17
2022-12-18T16:42:17.553Z,11.33
2022-12-18T16:44:46.622Z,10.75
2022-12-18T16:47:15.475Z,11.60
2022-12-18T16:49:45.449Z,9.13
2022-12-18T16:52:14.656Z,11.40
2022-12-18T16:54:42.649Z,10.47
2022-12-18T16:57:15.118Z,10.63
2022-12-18T16:59:42.842Z,9.20
2022-12-18T17:02:25.228Z,9.80
2022-12-18T17:04:58.778Z,9.90
2022-12-18T17:07:28.494Z,13.20
2022-12-18T17:09:56.921Z,9.77
2022-12-18T17:12:25.125Z,11.87
2022-12-18T17:14:52.896Z,9.77
2022-12-18T17:17:23.129Z,14.47
2022-12-18T17:19:52.514Z,12.37
2022-12-18T17:22:21.271Z,14.30
2022-12-18T17:24:49.234Z,11.77
2022-12-18T17:27:17.057Z,12.40
2022-12-18T17:29:48.430Z,11.63
2022-12-18T17:32:20.094Z,13.57
2022-12-18T17:34:48.233Z,10.25
2022-12-18T17:37:16.430Z,11.90
2022-12-18T17:39:44.290Z,11.93
2022-12-18T17:42:15.483Z,10.63
2022-12-18T17:44:44.115Z,10.48
2022-12-18T17:47:13.542Z,11.20
2022-12-18T17:49:41.645Z,10.47
2022-12-18T17:52:12.628Z,10.60
2022-12-18T17:54:42.439Z,12.60
2022-12-18T17:57:10.834Z,14.40
2022-12-18T17:59:38.804Z,10.27
2022-12-18T18:02:07.400Z,12.80
2022-12-18T18:04:36.321Z,11.70
2022-12-18T18:07:04.071Z,11.57
2022-12-18T18:09:32.463Z,10.60
2022-12-18T18:12:18.632Z,12.07
2022-12-18T18:14:46.484Z,12.93
2022-12-18T18:17:14.331Z,15.37
2022-12-18T18:19:42.335Z,11.40
2022-12-18T18:22:12.081Z,11.90
2022-12-18T18:24:39.926Z,12.77
2022-12-18T18:27:07.967Z,12.40
2022-12-18T18:29:36.791Z,12.40
2022-12-18T18:32:05.134Z,10.63
2022-12-18T18:34:33.578Z,11.13
2022-12-18T18:37:02.423Z,11.60
2022-12-18T18:39:30.499Z,11.07
2022-12-18T18:41:58.364Z,12.13
2022-12-18T18:44:26.632Z,9.07
2022-12-18T18:46:56.027Z,10.37
2022-12-18T18:51:56.945Z,8.30
2022-12-18T18:54:25.677Z,10.00
2022-12-18T18:57:19.282Z,9.97
2022-12-18T18:59:41.591Z,8.60
2022-12-18T19:02:14.189Z,8.80
2022-12-18T19:04:46.694Z,11.53
2022-12-18T19:07:29.888Z,12.00
2022-12-18T19:10:04.957Z,11.63
2022-12-18T19:12:52.541Z,11.07
2022-12-18T19:15:20.394Z,9.97
2022-12-18T19:17:48.547Z,9.60
2022-12-18T19:20:18.493Z,10.40
2022-12-18T19:22:47.979Z,10.93
2022-12-18T19:25:38.083Z,10.90
2022-12-18T19:28:13.231Z,10.87
2022-12-18T19:30:49.856Z,9.17
2022-12-18T19:33:41.803Z,11.15
2022-12-18T19:36:19.958Z,13.00
2022-12-18T19:38:49.192Z,10.25
2022-12-18T19:41:18.403Z,9.70
2022-12-18T19:43:47.299Z,11.60
2022-12-18T19:46:17.565Z,11.97
2022-12-18T19:48:45.839Z,10.02
2022-12-18T19:51:19.494Z,10.53
2022-12-18T19:53:47.687Z,10.20
2022-12-18T19:56:19.408Z,9.83
2022-12-18T19:58:47.271Z,10.73
2022-12-18T20:01:16.893Z,10.73
2022-12-18T20:03:51.529Z,14.63
2022-12-18T20:06:32.290Z,11.40
2022-12-18T20:09:02.735Z,8.90
2022-12-18T20:11:31.313Z,10.53
2022-12-18T20:13:59.529Z,11.60
2022-12-18T20:16:27.817Z,13.00
2022-12-18T20:18:58.800Z,10.93
2022-12-18T20:21:27.183Z,12.65
2022-12-18T20:23:55.953Z,9.90
2022-12-18T20:26:24.271Z,10.68
2022-12-18T20:28:52.523Z,11.80
2022-12-18T20:31:20.528Z,12.35
2022-12-18T20:33:50.960Z,13.50
2022-12-18T20:36:24.601Z,11.52
2022-12-18T20:38:55.724Z,12.43
2022-12-18T20:41:30.575Z,11.52
2022-12-18T20:44:23.271Z,10.23
2022-12-18T20:47:00.132Z,12.40
2022-12-18T20:49:31.388Z,13.18
2022-12-18T20:51:59.606Z,13.70
2022-12-18T20:54:28.249Z,10.90
2022-12-18T20:56:56.429Z,11.32
2022-12-18T20:59:25.828Z,10.98
2022-12-18T21:01:56.987Z,12.83
2022-12-18T21:04:25.385Z,12.88
2022-12-18T21:06:59.123Z,12.40
2022-12-18T21:09:37.413Z,16.20
2022-12-18T21:12:33.479Z,12.48
2022-12-18T21:15:04.036Z,14.10
2022-12-18T21:17:34.539Z,13.73
2022-12-18T21:20:09.644Z,13.38
2022-12-18T21:22:41.117Z,12.43
2022-12-18T21:25:10.091Z,13.85
2022-12-18T21:27:37.853Z,12.85
2022-12-18T21:30:06.545Z,12.63
2022-12-18T21:32:34.499Z,13.05
2022-12-18T21:35:02.445Z,13.48
2022-12-18T21:37:30.427Z,12.60
2022-12-18T21:39:58.953Z,13.90
2022-12-18T21:42:45.447Z,11.13
2022-12-18T21:45:13.223Z,18.73
2022-12-18T21:47:40.995Z,12.45
2022-12-18T21:50:09.358Z,12.70
2022-12-18T21:52:37.136Z,9.93
2022-12-18T21:55:09.735Z,9.55
2022-12-18T21:57:47.426Z,13.35
2022-12-18T22:00:19.298Z,14.05
2022-12-18T22:03:13.352Z,12.13
2022-12-18T22:05:38.880Z,13.20
2022-12-18T22:08:07.731Z,13.35
2022-12-18T22:10:36.159Z,12.10
2022-12-18T22:13:04.600Z,11.32
2022-12-18T22:15:32.384Z,16.27
2022-12-18T22:18:00.625Z,9.95
2022-12-18T22:20:34.701Z,14.85
2022-12-18T22:23:05.874Z,12.55
2022-12-18T22:25:39.175Z,9.63
2022-12-18T22:28:26.384Z,12.23
2022-12-18T22:30:58.121Z,13.73
2022-12-18T22:33:27.541Z,13.77
2022-12-18T22:35:55.376Z,13.13
2022-12-18T22:38:23.076Z,12.00
2022-12-18T22:40:50.958Z,14.50
2022-12-18T22:43:18.798Z,14.10
2022-12-18T22:45:47.574Z,16.13
2022-12-18T22:48:15.707Z,14.23
2022-12-18T22:50:44.442Z,12.20
2022-12-18T22:53:12.586Z,13.68
2022-12-18T22:55:40.257Z,12.25
2022-12-18T22:58:08.262Z,10.48
2022-12-18T23:00:36.336Z,11.38
2022-12-18T23:03:04.275Z,10.75
2022-12-18T23:05:35.028Z,11.60
2022-12-18T23:08:02.938Z,10.88
2022-12-18T23:10:31.206Z,18.70
2022-12-18T23:12:59.198Z,10.60
2022-12-18T23:15:29.331Z,11.40
2022-12-18T23:18:00.011Z,14.23
2022-12-18T23:20:31.341Z,13.10
2022-12-18T23:22:59.128Z,11.98
2022-12-18T23:25:27.074Z,14.30
2022-12-18T23:27:54.975Z,11.40
2022-12-18T23:30:22.683Z,13.00
2022-12-18T23:32:50.532Z,14.10
2022-12-18T23:35:18.584Z,12.93
2022-12-18T23:37:59.424Z,12.60
2022-12-18T23:40:29.034Z,12.00
2022-12-18T23:42:56.975Z,13.70
2022-12-18T23:45:24.720Z,11.50
2022-12-18T23:47:52.816Z,14.93
2022-12-18T23:50:26.739Z,11.90
2022-12-18T23:53:02.536Z,12.30
2022-12-18T23:55:34.674Z,10.82
2022-12-18T23:58:02.511Z,9.48
